Time;durP1;ratioP1;P1;durP2;ratioP2;P2;SDS_P1;SDS_P2;PMS_P1;PMS_P2;Temp;Humidity;BMP_temperature;BMP_pressure;BME280_temperature;BME280_humidity;BME280_pressure;Samples;Min_cycle;Max_cycle;Signal;HPM_P1;HPM_P2
2021/10/03 00:01:18;;;;;;;0.10;0.10;;;;;;;12.59;49.75;98744.15;114117;1216;137448;-86
2021/10/03 00:03:48;;;;;;;0.10;0.10;;;;;;;12.59;49.79;98740.98;114095;1217;137115;-85
2021/10/03 00:06:18;;;;;;;0.00;0.00;;;;;;;12.57;49.78;98738.90;114149;1217;136385;-84
2021/10/03 00:08:45;;;;;;;0.10;0.10;;;;;;;12.57;49.69;98741.41;114006;1214;139085;-85
2021/10/03 00:11:12;;;;;;;0.10;0.10;;;;;;;12.55;49.73;98738.54;114211;1218;22891;-84
2021/10/03 00:13:38;;;;;;;0.10;0.10;;;;;;;12.54;49.55;98745.21;114036;1217;137157;-86
2021/10/03 00:16:05;;;;;;;0.10;0.10;;;;;;;12.53;49.30;98744.50;114218;1212;137329;-84
2021/10/03 00:18:32;;;;;;;0.10;0.10;;;;;;;12.51;49.47;98742.19;114162;1212;137595;-84
2021/10/03 00:20:59;;;;;;;0.20;0.20;;;;;;;12.50;49.03;98733.86;114106;1217;137684;-85
2021/10/03 00:23:27;;;;;;;0.10;0.10;;;;;;;12.50;49.02;98728.78;114302;1217;22493;-84
2021/10/03 00:25:53;;;;;;;0.10;0.10;;;;;;;12.50;49.18;98726.20;114176;1217;137425;-86
2021/10/03 00:28:19;;;;;;;0.10;0.10;;;;;;;12.48;49.16;98730.06;114162;1216;137528;-85
2021/10/03 00:30:45;;;;;;;0.10;0.10;;;;;;;12.46;49.27;98730.89;114169;1217;137404;-84
2021/10/03 00:33:11;;;;;;;0.10;0.10;;;;;;;12.44;49.20;98733.58;114148;1217;137727;-85
2021/10/03 00:35:37;;;;;;;0.20;0.20;;;;;;;12.43;49.30;98735.39;114184;1217;137739;-83
2021/10/03 00:38:04;;;;;;;0.10;0.10;;;;;;;12.41;49.40;98735.67;114188;1217;22446;-83
2021/10/03 00:40:32;;;;;;;0.10;0.10;;;;;;;12.40;49.32;98740.39;114123;1217;137481;-84
2021/10/03 00:43:02;;;;;;;0.10;0.10;;;;;;;12.37;49.32;98744.42;114067;1217;149671;-84
2021/10/03 00:45:30;;;;;;;0.20;0.20;;;;;;;12.34;49.40;98747.58;114109;1202;137669;-84
2021/10/03 00:47:57;;;;;;;0.10;0.10;;;;;;;12.32;49.61;98750.78;114150;1212;138767;-85
2021/10/03 00:50:23;;;;;;;0.20;0.20;;;;;;;12.30;49.40;98751.00;114187;1218;22436;-85
2021/10/03 00:52:49;;;;;;;0.10;0.10;;;;;;;12.27;49.53;98756.41;114170;1217;137106;-85
2021/10/03 00:55:17;;;;;;;0.10;0.10;;;;;;;12.23;49.74;98752.42;114093;1217;137495;-84
2021/10/03 00:57:45;;;;;;;0.20;0.20;;;;;;;12.19;49.68;98756.13;114237;1217;137581;-85
2021/10/03 01:00:14;;;;;;;0.10;0.10;;;;;;;12.17;49.93;98752.46;114103;1215;137823;-82
2021/10/03 01:02:42;;;;;;;0.10;0.10;;;;;;;12.14;49.76;98755.52;114227;1215;137543;-84
2021/10/03 01:05:09;;;;;;;0.10;0.10;;;;;;;12.10;49.80;98747.04;114158;1218;23230;-85
2021/10/03 01:07:36;;;;;;;0.10;0.10;;;;;;;12.07;49.68;98754.57;114185;1218;137375;-85
2021/10/03 01:10:11;;;;;;;0.10;0.10;;;;;;;12.03;49.89;98752.16;114100;1217;137992;-85
2021/10/03 01:12:37;;;;;;;0.10;0.10;;;;;;;12.00;50.41;98746.91;114178;1217;137774;-84
2021/10/03 01:15:05;;;;;;;0.10;0.10;;;;;;;11.96;50.12;98744.41;114099;1217;137670;-84
2021/10/03 01:17:32;;;;;;;0.10;0.10;;;;;;;11.94;50.06;98738.70;114185;1217;137774;-84
2021/10/03 01:19:59;;;;;;;0.10;0.10;;;;;;;11.93;50.19;98736.77;114284;1217;22488;-84
2021/10/03 01:22:26;;;;;;;0.10;0.10;;;;;;;11.92;50.05;98734.39;114147;1217;137303;-85
2021/10/03 01:24:53;;;;;;;0.10;0.10;;;;;;;11.89;50.25;98733.91;114169;1217;137687;-85
2021/10/03 01:27:21;;;;;;;0.10;0.10;;;;;;;11.87;49.95;98727.70;114143;1217;137549;-85
2021/10/03 01:29:49;;;;;;;0.00;0.00;;;;;;;11.87;49.67;98736.77;114156;1212;137586;-84
2021/10/03 01:32:36;;;;;;;0.10;0.10;;;;;;;11.88;49.75;98737.40;114315;1217;22650;-84
2021/10/03 01:35:04;;;;;;;0.10;0.10;;;;;;;11.88;49.75;98741.01;114254;1217;22474;-83
2021/10/03 01:37:29;;;;;;;0.10;0.10;;;;;;;11.88;49.83;98737.77;114276;1217;137985;-84
2021/10/03 01:39:56;;;;;;;0.10;0.10;;;;;;;11.87;50.09;98739.69;114169;1211;137474;-84
2021/10/03 01:42:22;;;;;;;0.10;0.10;;;;;;;11.84;49.94;98739.83;114083;1217;138235;-84
2021/10/03 01:44:47;;;;;;;0.10;0.10;;;;;;;11.80;50.02;98735.73;114074;1217;137820;-85
2021/10/03 01:47:14;;;;;;;0.00;0.00;;;;;;;11.79;50.00;98731.38;114198;1217;22451;-84
2021/10/03 01:49:39;;;;;;;0.10;0.10;;;;;;;11.78;50.07;98730.76;114118;1217;137241;-84
2021/10/03 01:52:05;;;;;;;0.10;0.10;;;;;;;11.76;50.11;98728.11;114105;1218;137712;-85
2021/10/03 01:54:33;;;;;;;0.10;0.10;;;;;;;11.73;50.38;98727.27;114088;1217;137578;-85
2021/10/03 01:57:01;;;;;;;0.00;0.00;;;;;;;11.70;50.30;98720.45;114116;1214;137485;-85
2021/10/03 01:59:26;;;;;;;0.10;0.10;;;;;;;11.66;50.17;98721.65;114194;1217;23268;-84
2021/10/03 02:01:54;;;;;;;0.00;0.00;;;;;;;11.66;49.93;98721.40;114128;1217;138409;-84
2021/10/03 02:04:22;;;;;;;0.00;0.00;;;;;;;11.67;49.93;98724.39;114161;1217;137687;-85
2021/10/03 02:06:51;;;;;;;0.00;0.00;;;;;;;11.67;49.91;98721.64;114105;1217;137370;-84
2021/10/03 02:09:19;;;;;;;0.10;0.10;;;;;;;11.67;50.12;98726.81;114162;1216;137455;-84
2021/10/03 02:12:09;;;;;;;0.10;0.10;;;;;;;11.66;50.26;98723.98;114192;1210;137725;-84
2021/10/03 02:14:36;;;;;;;0.10;0.10;;;;;;;11.61;50.64;98724.98;114155;1217;137482;-84
2021/10/03 02:17:02;;;;;;;0.00;0.00;;;;;;;11.56;50.83;98728.06;114207;1217;22455;-84
2021/10/03 02:19:30;;;;;;;0.10;0.10;;;;;;;11.52;51.35;98734.95;114128;1217;137342;-84
2021/10/03 02:21:58;;;;;;;0.10;0.10;;;;;;;11.46;51.33;98730.08;114144;1217;137824;-83
2021/10/03 02:24:25;;;;;;;0.10;0.10;;;;;;;11.39;51.84;98730.08;114127;1217;137382;-83
2021/10/03 02:26:51;;;;;;;0.10;0.10;;;;;;;11.36;51.81;98733.88;114189;1217;137927;-85
2021/10/03 02:29:17;;;;;;;0.10;0.10;;;;;;;11.32;52.07;98727.98;114260;1209;22468;-84
2021/10/03 02:31:42;;;;;;;0.10;0.10;;;;;;;11.27;52.21;98723.64;114136;1217;137863;-83
2021/10/03 02:34:08;;;;;;;0.10;0.10;;;;;;;11.22;52.97;98720.73;114072;1213;137349;-84
2021/10/03 02:36:34;;;;;;;0.10;0.10;;;;;;;11.16;53.21;98727.60;114172;1217;137510;-84
2021/10/03 02:39:01;;;;;;;0.10;0.10;;;;;;;11.11;52.96;98723.02;114076;1217;137820;-85
2021/10/03 02:41:27;;;;;;;0.10;0.10;;;;;;;11.07;53.20;98719.33;114253;1217;22467;-84
2021/10/03 02:43:56;;;;;;;0.10;0.10;;;;;;;11.04;52.91;98716.58;114079;1217;136971;-84
2021/10/03 02:46:23;;;;;;;0.10;0.10;;;;;;;11.03;53.44;98719.23;114133;1217;137488;-82
2021/10/03 02:48:53;;;;;;;0.10;0.10;;;;;;;11.01;53.38;98721.98;114085;1217;137546;-83
2021/10/03 02:51:21;;;;;;;0.10;0.10;;;;;;;10.98;53.66;98718.43;114129;1217;137394;-81
2021/10/03 02:53:47;;;;;;;0.10;0.10;;;;;;;10.96;53.64;98725.17;114245;1212;137952;-83
2021/10/03 02:56:18;;;;;;;0.10;0.10;;;;;;;10.94;53.79;98722.36;114234;1217;22463;-84
2021/10/03 02:58:50;;;;;;;0.00;0.00;;;;;;;10.91;54.13;98719.89;114135;1217;137116;-83
2021/10/03 03:01:17;;;;;;;0.10;0.10;;;;;;;10.86;54.38;98721.40;114080;1217;137411;-83
2021/10/03 03:03:43;;;;;;;0.10;0.10;;;;;;;10.79;54.62;98720.31;114134;1217;137524;-83
2021/10/03 03:06:11;;;;;;;0.10;0.10;;;;;;;10.75;54.45;98720.61;114158;1217;137701;-83
2021/10/03 03:08:38;;;;;;;0.10;0.10;;;;;;;10.70;55.50;98712.20;114219;1217;137621;-84
2021/10/03 03:11:04;;;;;;;0.10;0.10;;;;;;;10.65;55.10;98716.63;114237;1212;22500;-83
2021/10/03 03:13:32;;;;;;;0.00;0.00;;;;;;;10.63;54.82;98711.81;114114;1213;137404;-83
2021/10/03 03:15:59;;;;;;;0.10;0.10;;;;;;;10.62;55.31;98710.70;114110;1216;137454;-84
2021/10/03 03:18:25;;;;;;;0.00;0.00;;;;;;;10.61;55.43;98711.48;114177;1216;138117;-84
2021/10/03 03:20:51;;;;;;;0.00;0.00;;;;;;;10.61;54.80;98710.55;114165;1217;137649;-83
2021/10/03 03:23:17;;;;;;;0.10;0.10;;;;;;;10.62;54.51;98706.70;114254;1211;24059;-83
2021/10/03 03:25:43;;;;;;;0.10;0.10;;;;;;;10.65;54.75;98703.54;114208;1217;137366;-82
2021/10/03 03:28:09;;;;;;;0.10;0.10;;;;;;;10.66;55.37;98704.83;114192;1213;137477;-83
2021/10/03 03:30:36;;;;;;;0.00;0.00;;;;;;;10.65;55.37;98697.66;114112;1213;137710;-84
2021/10/03 03:33:01;;;;;;;0.00;0.00;;;;;;;10.65;55.46;98699.61;114182;1217;137512;-84
2021/10/03 03:35:28;;;;;;;0.60;0.10;;;;;;;10.61;55.60;98695.11;114189;1217;22460;-84
2021/10/03 03:37:54;;;;;;;0.10;0.10;;;;;;;10.58;55.97;98699.75;114087;1217;138071;-83
2021/10/03 03:40:22;;;;;;;0.10;0.10;;;;;;;10.53;56.07;98704.67;114109;1203;136386;-84
2021/10/03 03:42:49;;;;;;;0.10;0.10;;;;;;;10.49;56.15;98708.66;114152;1217;137309;-84
2021/10/03 03:45:16;;;;;;;0.10;0.10;;;;;;;10.44;56.19;98707.36;114132;1217;137716;-85
2021/10/03 03:47:43;;;;;;;0.10;0.10;;;;;;;10.42;56.48;98709.79;114170;1217;137643;-84
2021/10/03 03:50:15;;;;;;;0.10;0.10;;;;;;;10.39;56.75;98714.17;114216;1209;22475;-84
2021/10/03 03:52:42;;;;;;;0.00;0.00;;;;;;;10.36;56.56;98707.78;114149;1217;137174;-84
2021/10/03 03:55:09;;;;;;;0.10;0.10;;;;;;;10.34;56.96;98712.61;114180;1217;137458;-84
2021/10/03 03:57:35;;;;;;;0.00;0.00;;;;;;;10.31;57.01;98714.31;114219;1217;137900;-84
2021/10/03 04:00:00;;;;;;;0.00;0.00;;;;;;;10.28;57.20;98708.95;114137;1217;137688;-85
2021/10/03 04:02:26;;;;;;;0.00;0.00;;;;;;;10.25;57.00;98707.08;114248;1217;22425;-84
2021/10/03 04:04:52;;;;;;;0.10;0.10;;;;;;;10.20;57.04;98707.51;114143;1217;138026;-84
2021/10/03 04:07:20;;;;;;;0.00;0.00;;;;;;;10.17;56.98;98710.48;114154;1217;139735;-84
2021/10/03 04:09:46;;;;;;;0.10;0.10;;;;;;;10.16;56.96;98711.56;114152;1217;137623;-85
2021/10/03 04:12:16;;;;;;;0.10;0.10;;;;;;;10.14;57.73;98705.38;114136;1213;137780;-86
2021/10/03 04:14:42;;;;;;;0.00;0.00;;;;;;;10.12;57.39;98702.62;114126;1217;137714;-85
2021/10/03 04:17:07;;;;;;;0.00;0.00;;;;;;;10.09;57.68;98698.51;114262;1217;25070;-85
2021/10/03 04:19:33;;;;;;;0.00;0.00;;;;;;;10.08;57.87;98698.97;114146;1217;137175;-85
2021/10/03 04:21:59;;;;;;;0.10;0.10;;;;;;;10.06;57.55;98699.16;114170;1213;137564;-84
2021/10/03 04:24:26;;;;;;;0.00;0.00;;;;;;;10.05;58.15;98701.17;114114;1217;138435;-85
2021/10/03 04:26:51;;;;;;;0.10;0.10;;;;;;;10.03;58.14;98698.58;114188;1217;137757;-85
2021/10/03 04:29:18;;;;;;;0.00;0.00;;;;;;;9.99;58.48;98697.23;114239;1217;22471;-85
2021/10/03 04:31:44;;;;;;;0.00;0.00;;;;;;;9.95;58.26;98697.86;114173;1209;137523;-84
2021/10/03 04:34:09;;;;;;;0.00;0.00;;;;;;;9.92;58.04;98697.00;114112;1217;137480;-84
2021/10/03 04:36:36;;;;;;;0.10;0.10;;;;;;;9.90;58.42;98695.70;114099;1217;138265;-84
2021/10/03 04:39:04;;;;;;;0.00;0.00;;;;;;;9.89;58.15;98700.67;114054;1217;137833;-84
2021/10/03 04:41:29;;;;;;;0.10;0.10;;;;;;;9.87;58.53;98697.90;114074;1217;137654;-84
2021/10/03 04:43:55;;;;;;;0.10;0.10;;;;;;;9.87;58.45;98699.09;114200;1217;23334;-83
2021/10/03 04:46:20;;;;;;;0.10;0.10;;;;;;;9.89;58.66;98699.15;114120;1217;137709;-83
2021/10/03 04:48:46;;;;;;;0.10;0.10;;;;;;;9.93;58.72;98695.33;114112;1217;138093;-83
2021/10/03 04:51:11;;;;;;;0.00;0.00;;;;;;;9.98;58.63;98698.68;114207;1216;137344;-84
2021/10/03 04:53:37;;;;;;;0.00;0.00;;;;;;;10.02;58.77;98692.40;114091;1216;137343;-84
2021/10/03 04:56:03;;;;;;;0.00;0.00;;;;;;;10.06;58.80;98694.77;114274;1216;22469;-83
2021/10/03 04:58:29;;;;;;;0.10;0.10;;;;;;;10.08;58.93;98700.04;114129;1217;137346;-83
2021/10/03 05:00:55;;;;;;;0.10;0.10;;;;;;;10.10;58.60;98709.27;114103;1213;137480;-83
2021/10/03 05:03:22;;;;;;;0.00;0.00;;;;;;;10.12;58.84;98715.25;114100;1217;137860;-83
2021/10/03 05:05:48;;;;;;;0.00;0.00;;;;;;;10.14;58.66;98715.98;114125;1217;137496;-83
2021/10/03 05:08:14;;;;;;;0.10;0.10;;;;;;;10.15;58.54;98711.34;114278;1217;22471;-83
2021/10/03 05:10:40;;;;;;;0.10;0.10;;;;;;;10.14;58.42;98711.23;114158;1217;137220;-83
2021/10/03 05:13:07;;;;;;;0.00;0.00;;;;;;;10.14;58.78;98714.58;114128;1217;137800;-83
2021/10/03 05:15:33;;;;;;;0.10;0.10;;;;;;;10.13;58.72;98724.21;114048;1217;137769;-84
2021/10/03 05:17:58;;;;;;;0.10;0.10;;;;;;;10.12;58.56;98723.92;114161;1215;137891;-85
2021/10/03 05:20:24;;;;;;;0.10;0.10;;;;;;;10.09;58.58;98723.16;114303;1216;22467;-85
2021/10/03 05:22:50;;;;;;;0.00;0.00;;;;;;;10.07;57.97;98725.20;114149;1217;137122;-85
2021/10/03 05:25:15;;;;;;;0.10;0.10;;;;;;;10.07;57.92;98725.61;114173;1217;137621;-83
2021/10/03 05:27:43;;;;;;;0.10;0.10;;;;;;;10.09;58.62;98722.88;114100;1217;137531;-87
2021/10/03 05:30:10;;;;;;;0.00;0.00;;;;;;;10.10;57.90;98728.30;114115;1216;138575;-86
2021/10/03 05:32:35;;;;;;;0.10;0.10;;;;;;;10.12;58.17;98725.16;114055;1209;138344;-84
2021/10/03 05:35:03;;;;;;;0.00;0.00;;;;;;;10.15;58.65;98724.69;114178;1212;22477;-84
2021/10/03 05:37:28;;;;;;;0.00;0.00;;;;;;;10.16;58.92;98717.77;114075;1217;137598;-84
2021/10/03 05:39:55;;;;;;;0.10;0.10;;;;;;;10.17;58.50;98715.84;114018;1212;138220;-85
2021/10/03 05:42:22;;;;;;;0.00;0.00;;;;;;;10.21;58.79;98704.59;114108;1217;137704;-85
2021/10/03 05:44:48;;;;;;;0.00;0.00;;;;;;;10.23;58.94;98701.27;114071;1209;138339;-85
2021/10/03 05:47:15;;;;;;;0.10;0.10;;;;;;;10.24;58.50;98700.23;114230;1217;22455;-84
2021/10/03 05:49:40;;;;;;;0.10;0.10;;;;;;;10.24;58.66;98704.37;114143;1217;137617;-84
2021/10/03 05:52:06;;;;;;;0.10;0.10;;;;;;;10.27;58.20;98713.66;114173;1217;138303;-84
2021/10/03 05:54:32;;;;;;;0.10;0.10;;;;;;;10.32;58.35;98718.09;114093;1217;137976;-84
2021/10/03 05:56:58;;;;;;;0.00;0.00;;;;;;;10.36;58.32;98717.52;114145;1217;137803;-84
2021/10/03 05:59:23;;;;;;;0.10;0.10;;;;;;;10.40;58.53;98727.93;114283;1213;23152;-86
2021/10/03 06:01:49;;;;;;;0.10;0.10;;;;;;;10.45;57.55;98729.14;114115;1217;138001;-84
2021/10/03 06:04:14;;;;;;;0.10;0.10;;;;;;;10.49;57.55;98736.38;114154;1217;137493;-83
2021/10/03 06:06:40;;;;;;;0.10;0.10;;;;;;;10.53;57.17;98740.77;114064;1217;138546;-84
2021/10/03 06:09:06;;;;;;;0.00;0.00;;;;;;;10.58;57.31;98739.00;114117;1217;138067;-84
2021/10/03 06:11:32;;;;;;;0.10;0.10;;;;;;;10.62;56.90;98744.54;114049;1217;137859;-85
2021/10/03 06:13:58;;;;;;;0.00;0.00;;;;;;;10.67;57.03;98741.95;114280;1217;22442;-85
2021/10/03 06:16:25;;;;;;;0.10;0.10;;;;;;;10.72;56.92;98738.33;114270;1217;138069;-86
2021/10/03 06:18:51;;;;;;;0.10;0.10;;;;;;;10.80;57.08;98734.46;114197;1217;137406;-84
2021/10/03 06:21:17;;;;;;;0.10;0.10;;;;;;;10.86;56.56;98737.46;114209;1213;136574;-85
2021/10/03 06:23:44;;;;;;;0.10;0.10;;;;;;;10.93;56.41;98738.01;114201;1216;136604;-85
2021/10/03 06:26:14;;;;;;;0.00;0.00;;;;;;;11.00;56.30;98735.86;114291;1216;22552;-85
2021/10/03 06:28:40;;;;;;;0.10;0.10;;;;;;;11.07;55.92;98731.13;114070;1217;137248;-85
2021/10/03 06:31:07;;;;;;;0.10;0.10;;;;;;;11.14;55.81;98734.16;114221;1217;137554;-85
2021/10/03 06:33:34;;;;;;;0.00;0.00;;;;;;;11.19;55.68;98733.23;113996;1217;137815;-85
2021/10/03 06:36:00;;;;;;;0.00;0.00;;;;;;;11.26;55.66;98731.90;113922;1217;138358;-85
2021/10/03 06:38:26;;;;;;;0.10;0.10;;;;;;;11.35;55.43;98734.75;114188;1217;22430;-85
2021/10/03 06:40:52;;;;;;;0.10;0.10;;;;;;;11.42;55.15;98732.33;114153;1216;136941;-85
2021/10/03 06:43:18;;;;;;;0.10;0.10;;;;;;;11.51;55.28;98730.45;114236;1216;137648;-85
2021/10/03 06:45:44;;;;;;;0.10;0.10;;;;;;;11.61;55.17;98730.64;114187;1209;137995;-85
2021/10/03 06:48:12;;;;;;;0.10;0.10;;;;;;;11.69;54.67;98730.17;114229;1216;138949;-85
2021/10/03 06:50:38;;;;;;;0.10;0.10;;;;;;;11.78;54.52;98736.27;114222;1216;138194;-86
2021/10/03 06:53:04;;;;;;;0.10;0.10;;;;;;;11.86;54.14;98735.09;114345;1216;22458;-86
2021/10/03 06:55:31;;;;;;;0.10;0.10;;;;;;;11.93;54.17;98738.30;114228;1217;137939;-86
2021/10/03 06:57:57;;;;;;;0.10;0.10;;;;;;;12.03;54.24;98742.29;114211;1217;137488;-86
2021/10/03 07:00:24;;;;;;;0.10;0.10;;;;;;;12.12;53.96;98738.73;114181;1212;137494;-85
2021/10/03 07:02:49;;;;;;;0.10;0.10;;;;;;;12.21;53.88;98735.98;114213;1209;137816;-84
2021/10/03 07:05:15;;;;;;;0.10;0.10;;;;;;;12.31;53.45;98730.86;114336;1212;22457;-85
2021/10/03 07:07:42;;;;;;;0.20;0.20;;;;;;;12.42;53.56;98725.00;114244;1217;137369;-84
2021/10/03 07:10:09;;;;;;;0.10;0.10;;;;;;;12.53;53.19;98725.80;114228;1217;137793;-85
2021/10/03 07:12:35;;;;;;;0.10;0.10;;;;;;;12.64;52.99;98731.14;114203;1217;137431;-85
2021/10/03 07:15:01;;;;;;;0.10;0.10;;;;;;;12.75;52.93;98734.98;114221;1217;137764;-85
2021/10/03 07:17:26;;;;;;;0.10;0.10;;;;;;;12.86;52.89;98734.30;114302;1217;22462;-85
2021/10/03 07:19:52;;;;;;;0.10;0.10;;;;;;;12.96;52.54;98742.74;114212;1217;137198;-86
2021/10/03 07:22:18;;;;;;;0.10;0.10;;;;;;;13.08;52.40;98744.89;114218;1217;137644;-85
2021/10/03 07:24:44;;;;;;;0.20;0.20;;;;;;;13.18;51.41;98747.04;114204;1217;137322;-86
2021/10/03 07:27:11;;;;;;;0.10;0.10;;;;;;;13.26;51.54;98742.81;114219;1217;137828;-86
2021/10/03 07:29:36;;;;;;;0.20;0.20;;;;;;;13.34;51.46;98743.19;114292;1202;137586;-87
2021/10/03 07:32:06;;;;;;;0.20;0.20;;;;;;;13.42;51.46;98736.56;114187;1217;22454;-85
2021/10/03 07:34:34;;;;;;;0.20;0.20;;;;;;;13.50;51.38;98739.73;114239;1213;137206;-87
2021/10/03 07:37:05;;;;;;;0.10;0.10;;;;;;;13.62;51.83;98739.30;114268;1217;137556;-86
2021/10/03 07:39:31;;;;;;;0.00;0.00;;;;;;;13.69;51.27;98745.05;114169;1209;137572;-85
2021/10/03 07:42:36;;;;;;;0.10;0.10;;;;;;;13.77;51.04;98746.60;114249;1209;138037;-87
2021/10/03 07:45:03;;;;;;;0.10;0.10;;;;;;;13.82;50.37;98742.77;114281;1217;137775;-85
2021/10/03 07:47:29;;;;;;;0.10;0.10;;;;;;;13.84;50.60;98743.05;114213;1217;137553;-86
2021/10/03 07:49:54;;;;;;;0.10;0.10;;;;;;;13.91;50.94;98741.58;114305;1217;22618;-87
2021/10/03 07:52:20;;;;;;;0.10;0.10;;;;;;;14.02;51.24;98738.17;114231;1213;137600;-86
2021/10/03 07:54:45;;;;;;;0.10;0.10;;;;;;;14.14;50.80;98739.35;114204;1217;137401;-85
2021/10/03 07:57:12;;;;;;;0.20;0.20;;;;;;;14.24;50.82;98740.08;114211;1217;138101;-86
2021/10/03 07:59:37;;;;;;;0.20;0.20;;;;;;;14.34;50.58;98743.36;114219;1212;137872;-86
2021/10/03 08:02:03;;;;;;;0.10;0.10;;;;;;;14.46;50.24;98747.45;114332;1217;22488;-85
2021/10/03 08:04:29;;;;;;;0.10;0.10;;;;;;;14.55;49.47;98745.54;114246;1217;137217;-85
2021/10/03 08:06:54;;;;;;;0.20;0.20;;;;;;;14.61;49.54;98747.80;114188;1213;137449;-85
2021/10/03 08:09:20;;;;;;;0.20;0.20;;;;;;;14.71;50.15;98746.10;114223;1217;137497;-85
2021/10/03 08:11:45;;;;;;;0.30;0.30;;;;;;;14.86;50.20;98747.47;114249;1211;138276;-84
2021/10/03 08:14:12;;;;;;;0.20;0.20;;;;;;;15.01;49.07;98753.13;114392;1217;24048;-87
2021/10/03 08:16:37;;;;;;;0.20;0.20;;;;;;;15.12;49.29;98746.58;114273;1212;137388;-86
2021/10/03 08:19:03;;;;;;;0.30;0.30;;;;;;;15.24;49.20;98748.75;114200;1216;138153;-85
2021/10/03 08:21:29;;;;;;;0.30;0.30;;;;;;;15.40;49.86;98747.94;114133;1217;137444;-85
2021/10/03 08:24:04;;;;;;;0.10;0.10;;;;;;;15.57;49.34;98742.49;113994;1213;137657;-84
2021/10/03 08:26:29;;;;;;;0.20;0.20;;;;;;;15.71;48.58;98743.73;114121;1217;137692;-86
2021/10/03 08:28:55;;;;;;;0.20;0.20;;;;;;;15.85;48.44;98740.91;114249;1212;22458;-85
2021/10/03 08:31:21;;;;;;;0.20;0.20;;;;;;;15.95;48.12;98733.17;114040;1213;137410;-85
2021/10/03 08:33:47;;;;;;;0.20;0.20;;;;;;;16.08;48.83;98736.25;114109;1216;137924;-85
2021/10/03 08:36:13;;;;;;;0.30;0.30;;;;;;;16.22;48.22;98737.29;114145;1217;137751;-85
2021/10/03 08:38:39;;;;;;;0.10;0.10;;;;;;;16.36;48.01;98735.01;114154;1217;137747;-86
2021/10/03 08:41:04;;;;;;;0.20;0.20;;;;;;;16.49;47.72;98740.23;114231;1216;22552;-85
2021/10/03 08:43:30;;;;;;;0.20;0.20;;;;;;;16.62;47.80;98740.02;113977;1218;137470;-85
2021/10/03 08:45:57;;;;;;;0.20;0.20;;;;;;;16.75;46.34;98745.98;114100;1217;137588;-85
2021/10/03 08:48:24;;;;;;;0.20;0.20;;;;;;;16.85;46.59;98744.77;114143;1217;137465;-83
2021/10/03 08:50:50;;;;;;;0.40;0.40;;;;;;;17.01;47.17;98746.56;114019;1218;139147;-84
2021/10/03 08:53:17;;;;;;;0.30;0.30;;;;;;;17.14;45.99;98741.75;114212;1217;22462;-83
2021/10/03 08:55:43;;;;;;;0.20;0.20;;;;;;;17.27;46.49;98744.23;114039;1217;137977;-83
2021/10/03 08:58:10;;;;;;;0.20;0.20;;;;;;;17.45;46.50;98736.11;113982;1217;138376;-83
2021/10/03 09:00:45;;;;;;;0.30;0.30;;;;;;;17.63;45.93;98735.45;114129;1217;137660;-84
2021/10/03 09:03:12;;;;;;;0.30;0.30;;;;;;;17.79;45.78;98731.09;114066;1212;137711;-84
2021/10/03 09:05:45;;;;;;;0.20;0.20;;;;;;;17.95;45.44;98733.31;114067;1216;137692;-82
2021/10/03 09:08:16;;;;;;;0.20;0.20;;;;;;;18.11;44.78;98733.71;114271;1209;22454;-83
2021/10/03 09:10:59;;;;;;;0.20;0.20;;;;;;;18.26;44.92;98730.73;114107;1217;138179;-83
2021/10/03 09:13:31;;;;;;;0.20;0.20;;;;;;;18.43;43.78;98731.80;114135;1213;137752;-83
2021/10/03 09:16:04;;;;;;;0.30;0.30;;;;;;;18.57;43.52;98733.53;114102;1217;138030;-85
2021/10/03 09:19:01;;;;;;;0.30;0.30;;;;;;;18.76;43.96;98733.14;114119;1202;137543;-83
2021/10/03 09:21:29;;;;;;;0.20;0.20;;;;;;;19.00;43.54;98726.66;114260;1216;137525;-83
2021/10/03 09:24:00;;;;;;;0.30;0.30;;;;;;;19.20;43.34;98727.19;114136;1217;138312;-83
2021/10/03 09:26:26;;;;;;;0.20;0.20;;;;;;;19.40;42.08;98727.75;114218;1213;22455;-83
2021/10/03 09:28:51;;;;;;;0.30;0.30;;;;;;;19.53;42.30;98723.42;114086;1216;137360;-82
2021/10/03 09:31:17;;;;;;;0.20;0.20;;;;;;;19.69;42.22;98720.40;114176;1217;137331;-85
2021/10/03 09:34:02;;;;;;;0.20;0.20;;;;;;;19.86;42.11;98721.64;113927;1213;139154;-83
2021/10/03 09:36:33;;;;;;;0.30;0.30;;;;;;;20.04;40.89;98725.96;113985;1217;137523;-83
2021/10/03 09:39:09;;;;;;;0.20;0.20;;;;;;;20.19;41.14;98731.69;113841;1217;137630;-84
2021/10/03 09:41:37;;;;;;;0.30;0.30;;;;;;;20.32;39.81;98729.73;114221;1217;137886;-84
2021/10/03 09:44:10;;;;;;;0.20;0.20;;;;;;;20.39;38.67;98727.41;114022;1213;22512;-83
2021/10/03 09:46:41;;;;;;;0.40;0.40;;;;;;;20.45;39.45;98724.48;114438;1216;137301;-84
2021/10/03 09:49:18;;;;;;;0.30;0.30;;;;;;;20.52;38.65;98725.78;113962;1217;137524;-84
2021/10/03 09:51:49;;;;;;;0.30;0.30;;;;;;;20.68;39.35;98723.37;113919;1217;137933;-83
2021/10/03 09:54:19;;;;;;;0.30;0.30;;;;;;;20.85;39.56;98723.94;113948;1213;138211;-83
2021/10/03 09:56:47;;;;;;;0.30;0.30;;;;;;;20.95;37.99;98722.76;113889;1213;137702;-84
2021/10/03 09:59:13;;;;;;;0.40;0.40;;;;;;;21.06;38.70;98730.58;114047;1215;22524;-83
2021/10/03 10:01:44;;;;;;;0.30;0.30;;;;;;;21.16;37.99;98724.30;113971;1213;137269;-83
2021/10/03 10:04:11;;;;;;;0.40;0.40;;;;;;;21.27;38.25;98718.66;113928;1217;137580;-83
2021/10/03 10:06:37;;;;;;;0.30;0.30;;;;;;;21.40;37.69;98725.96;113861;1213;137609;-84
2021/10/03 10:09:09;;;;;;;0.20;0.20;;;;;;;21.60;37.94;98726.82;113973;1217;138267;-84
2021/10/03 10:11:55;;;;;;;0.30;0.30;;;;;;;21.73;36.85;98725.55;113948;1213;137716;-84
2021/10/03 10:14:39;;;;;;;0.40;0.40;;;;;;;21.91;36.81;98721.91;114100;1217;23130;-84
2021/10/03 10:17:26;;;;;;;0.20;0.20;;;;;;;22.03;36.56;98717.33;114004;1215;22528;-84
2021/10/03 10:19:55;;;;;;;0.20;0.20;;;;;;;22.21;37.00;98724.27;114044;1212;23470;-83
2021/10/03 10:22:35;;;;;;;0.20;0.20;;;;;;;22.34;35.69;98723.44;113840;1218;137935;-85
2021/10/03 10:25:05;;;;;;;0.40;0.40;;;;;;;22.45;35.59;98719.85;113955;1210;137648;-83
2021/10/03 10:27:33;;;;;;;0.30;0.30;;;;;;;22.52;36.18;98718.50;113919;1217;137386;-83
2021/10/03 10:30:11;;;;;;;0.40;0.40;;;;;;;22.67;35.85;98720.09;113923;1216;137567;-83
2021/10/03 10:32:59;;;;;;;0.40;0.40;;;;;;;22.77;34.83;98716.40;113997;1213;137612;-83
2021/10/03 10:35:41;;;;;;;0.30;0.30;;;;;;;22.88;34.75;98722.20;113963;1217;137659;-80
2021/10/03 10:38:11;;;;;;;0.20;0.20;;;;;;;22.96;34.43;98724.23;113921;1209;22454;-84
2021/10/03 10:40:36;;;;;;;0.50;0.50;;;;;;;22.95;34.38;98719.52;113934;1217;137191;-85
2021/10/03 10:43:10;;;;;;;0.50;0.50;;;;;;;23.07;34.81;98717.08;114056;1213;137437;-84
2021/10/03 10:45:44;;;;;;;0.40;0.40;;;;;;;23.26;34.51;98706.66;114046;1216;137306;-86
2021/10/03 10:48:13;;;;;;;0.40;0.40;;;;;;;23.45;34.86;98705.31;113974;1213;137954;-84
2021/10/03 10:50:42;;;;;;;0.40;0.40;;;;;;;23.62;34.64;98705.61;114051;1217;138056;-84
2021/10/03 10:53:24;;;;;;;0.40;0.40;;;;;;;23.77;33.92;98703.64;114142;1212;24127;-84
2021/10/03 10:56:10;;;;;;;0.50;0.50;;;;;;;23.84;32.36;98706.02;114205;1216;137312;-84
2021/10/03 10:58:52;;;;;;;0.30;0.30;;;;;;;23.75;32.81;98694.21;114129;1217;137380;-84
2021/10/03 11:01:40;;;;;;;0.50;0.50;;;;;;;23.71;32.40;98697.19;114268;1213;137593;-84
2021/10/03 11:04:18;;;;;;;0.40;0.40;;;;;;;23.75;32.93;98693.66;114061;1217;137445;-85
2021/10/03 11:06:44;;;;;;;0.30;0.30;;;;;;;23.85;32.84;98695.41;114159;1216;137380;-85
2021/10/03 11:09:13;;;;;;;0.40;0.40;;;;;;;23.93;32.57;98689.30;114203;1217;137668;-84
2021/10/03 11:11:57;;;;;;;0.30;0.30;;;;;;;23.98;32.16;98685.84;114219;1193;137661;-84
2021/10/03 11:14:25;;;;;;;0.40;0.40;;;;;;;24.04;32.90;98679.88;114302;1217;22913;-84
2021/10/03 11:16:58;;;;;;;0.50;0.50;;;;;;;24.24;33.05;98678.39;114211;1213;137365;-85
2021/10/03 11:19:45;;;;;;;0.50;0.50;;;;;;;24.41;32.23;98672.52;114263;1217;137717;-84
2021/10/03 11:22:24;;;;;;;0.40;0.40;;;;;;;24.62;32.32;98672.02;114273;1213;137593;-85
2021/10/03 11:24:53;;;;;;;0.50;0.50;;;;;;;24.76;31.31;98664.13;114275;1213;137366;-85